Kerrville, TX (78029)

7:11 AM CDT on September 18, 2014 (GMT -0500)
Mt. Wesley | Change Station
CLOSE
Current Station
Personal Weather Station
Location: Kerrville, TX
Elevation: 1818 ft
Nearby Weather Stations

Elev 1818 ft 30.08 °N, 99.16 °W | Updated 1 minute ago

Mostly Cloudy
Mostly Cloudy
74.3 °F
Feels Like 72 °F
N
0.0
Wind Variable Wind from South

Today
High -- | Low -- °F
--% Chance of Precip.
Yesterday
High -- | Low -- °F
Precip. -- in
7:22 AM 7:38 PM
Waning Crescent, 27% visible
Pressure 29.92 in
Visibility 10.0 miles
Clouds Scattered Clouds 1800 ft
Overcast 7000 ft
Heat Index 72 °F
Dew Point 73 °F
Humidity 95%
Rainfall 0.00 in
Snow Depth Not available.
UV 0 out of 12
Pollen 7.80 out of 12
Air Quality Not available.
Flu Activity Not available.
METAR KERV 181155Z AUTO 15007KT 10SM SCT018 OVC070 24/22 A2992 RMK AO2 LTG DSNT E T02350219 10247 20233

More Conditions Fewer Conditions

Pressure 29.92 in
Visibility 10.0 miles
Clouds Scattered Clouds 1800 ft
Overcast 7000 ft
Heat Index 72 °F
Dew Point 73 °F
Humidity 95%
Rainfall 0.00 in
Snow Depth Not available.
UV 0 out of 12
Pollen 7.80 out of 12
Air Quality Not available.
Flu Activity Not available.
METAR KERV 181155Z AUTO 15007KT 10SM SCT018 OVC070 24/22 A2992 RMK AO2 LTG DSNT E T02350219 10247 20233

More Conditions Fewer Conditions

10-Day Weather Forecast

Almanac

Astronomy

Sep. 18, 2014 Rise Set
Actual Time 7:22 AM CDT 7:38 PM CDT
Civil Twilight 6:58 AM CDT 8:02 PM CDT
Nautical Twilight 6:30 AM CDT 8:29 PM CDT
Astronomical Twilight 6:02 AM CDT 8:58 PM CDT
Moon 2:32 AM CDT 4:15 PM CDT
Length of Visible Light 13h 03m
Length of Day
12h 15m
Tomorrow will be 1m 47s shorter.
Waning Crescent, 27% of the Moon is Illuminated
Today
Waning Crescent
Sep 24
New
Oct 1
First Quarter
Oct 8
Full
Oct 15
Last Quarter

Today's Extremes

State Highs State Lows

Community

WunderPhotos

Upload Photos

1,754,332 photos uploaded!

Nearby

Snow Depth

Station Depth Elevation
No new snow has been reported.

Earthquake Activity

City Distance Mag. Time & Date
No recent earthquake activity has been reported nearby.
Minimum magnitude displayed is 2.5.

Coastal Water Temperatures

Place Temperature
No Stations Reporting

Nearby Weather Stations